sensor_id;sensor_type;location;lat;lon;timestamp;P1;durP1;ratioP1;P2;durP2;ratioP2
32347;SDS011;18821;44.800;10.326;2023-02-26T00:01:48;96.40;;;50.10;;
32347;SDS011;18821;44.800;10.326;2023-02-26T00:04:14;104.20;;;49.22;;
32347;SDS011;18821;44.800;10.326;2023-02-26T00:06:40;109.38;;;51.80;;
32347;SDS011;18821;44.800;10.326;2023-02-26T00:09:16;97.00;;;47.22;;
32347;SDS011;18821;44.800;10.326;2023-02-26T00:11:43;104.75;;;48.53;;
32347;SDS011;18821;44.800;10.326;2023-02-26T00:14:11;103.00;;;46.97;;
32347;SDS011;18821;44.800;10.326;2023-02-26T00:16:39;97.05;;;45.85;;
32347;SDS011;18821;44.800;10.326;2023-02-26T00:19:06;92.20;;;45.03;;
32347;SDS011;18821;44.800;10.326;2023-02-26T00:21:35;99.70;;;46.60;;
32347;SDS011;18821;44.800;10.326;2023-02-26T00:24:01;108.68;;;47.10;;
32347;SDS011;18821;44.800;10.326;2023-02-26T00:26:28;104.30;;;47.33;;
32347;SDS011;18821;44.800;10.326;2023-02-26T00:28:55;86.88;;;46.20;;
32347;SDS011;18821;44.800;10.326;2023-02-26T00:31:22;101.65;;;46.60;;
32347;SDS011;18821;44.800;10.326;2023-02-26T00:33:52;100.72;;;45.47;;
32347;SDS011;18821;44.800;10.326;2023-02-26T00:38:54;98.97;;;45.72;;
32347;SDS011;18821;44.800;10.326;2023-02-26T00:41:21;96.07;;;46.63;;
32347;SDS011;18821;44.800;10.326;2023-02-26T00:43:48;100.32;;;47.10;;
32347;SDS011;18821;44.800;10.326;2023-02-26T00:51:55;101.20;;;45.22;;
32347;SDS011;18821;44.800;10.326;2023-02-26T00:54:27;102.03;;;45.00;;
32347;SDS011;18821;44.800;10.326;2023-02-26T00:56:55;102.13;;;45.72;;
32347;SDS011;18821;44.800;10.326;2023-02-26T00:59:23;98.88;;;45.42;;
32347;SDS011;18821;44.800;10.326;2023-02-26T01:01:50;93.68;;;44.03;;
32347;SDS011;18821;44.800;10.326;2023-02-26T01:04:18;88.57;;;42.42;;
32347;SDS011;18821;44.800;10.326;2023-02-26T01:06:50;86.25;;;41.95;;
32347;SDS011;18821;44.800;10.326;2023-02-26T01:09:31;94.60;;;44.25;;
32347;SDS011;18821;44.800;10.326;2023-02-26T01:11:59;92.13;;;43.65;;
32347;SDS011;18821;44.800;10.326;2023-02-26T01:14:28;99.50;;;42.88;;
32347;SDS011;18821;44.800;10.326;2023-02-26T01:17:01;88.82;;;43.22;;
32347;SDS011;18821;44.800;10.326;2023-02-26T01:19:41;93.63;;;45.53;;
32347;SDS011;18821;44.800;10.326;2023-02-26T01:25:03;87.95;;;44.17;;
32347;SDS011;18821;44.800;10.326;2023-02-26T01:27:35;97.88;;;45.95;;
32347;SDS011;18821;44.800;10.326;2023-02-26T01:30:02;99.75;;;47.05;;
32347;SDS011;18821;44.800;10.326;2023-02-26T01:32:43;96.65;;;45.38;;
32347;SDS011;18821;44.800;10.326;2023-02-26T01:35:22;99.95;;;45.80;;
32347;SDS011;18821;44.800;10.326;2023-02-26T01:37:56;94.30;;;45.35;;
32347;SDS011;18821;44.800;10.326;2023-02-26T01:43:02;98.32;;;45.65;;
32347;SDS011;18821;44.800;10.326;2023-02-26T01:45:34;98.05;;;43.60;;
32347;SDS011;18821;44.800;10.326;2023-02-26T01:50:34;86.47;;;44.50;;
32347;SDS011;18821;44.800;10.326;2023-02-26T01:53:19;100.18;;;44.08;;
32347;SDS011;18821;44.800;10.326;2023-02-26T01:55:54;96.43;;;45.08;;
32347;SDS011;18821;44.800;10.326;2023-02-26T01:58:22;104.78;;;46.03;;
32347;SDS011;18821;44.800;10.326;2023-02-26T02:00:50;93.60;;;46.15;;
32347;SDS011;18821;44.800;10.326;2023-02-26T02:03:17;99.35;;;46.38;;
32347;SDS011;18821;44.800;10.326;2023-02-26T02:05:49;103.07;;;46.65;;
32347;SDS011;18821;44.800;10.326;2023-02-26T02:08:18;99.15;;;43.50;;
32347;SDS011;18821;44.800;10.326;2023-02-26T02:10:45;96.28;;;44.17;;
32347;SDS011;18821;44.800;10.326;2023-02-26T02:21:27;90.82;;;41.88;;
32347;SDS011;18821;44.800;10.326;2023-02-26T02:24:07;98.38;;;43.45;;
32347;SDS011;18821;44.800;10.326;2023-02-26T02:26:49;96.18;;;45.03;;
32347;SDS011;18821;44.800;10.326;2023-02-26T02:29:36;89.40;;;42.10;;
32347;SDS011;18821;44.800;10.326;2023-02-26T02:32:09;85.03;;;39.90;;
32347;SDS011;18821;44.800;10.326;2023-02-26T02:40:07;91.28;;;39.10;;
32347;SDS011;18821;44.800;10.326;2023-02-26T02:45:19;81.80;;;38.25;;
32347;SDS011;18821;44.800;10.326;2023-02-26T02:47:52;84.00;;;37.58;;
32347;SDS011;18821;44.800;10.326;2023-02-26T02:50:27;77.90;;;35.92;;
32347;SDS011;18821;44.800;10.326;2023-02-26T02:53:05;74.57;;;32.72;;
32347;SDS011;18821;44.800;10.326;2023-02-26T02:55:46;78.10;;;34.08;;
32347;SDS011;18821;44.800;10.326;2023-02-26T03:00:58;69.57;;;31.92;;
32347;SDS011;18821;44.800;10.326;2023-02-26T03:03:34;73.60;;;32.72;;
32347;SDS011;18821;44.800;10.326;2023-02-26T03:06:08;74.97;;;33.70;;
32347;SDS011;18821;44.800;10.326;2023-02-26T03:08:35;71.75;;;32.35;;
32347;SDS011;18821;44.800;10.326;2023-02-26T03:11:07;68.40;;;32.47;;
32347;SDS011;18821;44.800;10.326;2023-02-26T03:13:34;61.90;;;30.88;;
32347;SDS011;18821;44.800;10.326;2023-02-26T03:19:14;74.53;;;30.98;;
32347;SDS011;18821;44.800;10.326;2023-02-26T03:25:18;68.28;;;33.88;;
32347;SDS011;18821;44.800;10.326;2023-02-26T03:30:56;86.88;;;43.22;;
32347;SDS011;18821;44.800;10.326;2023-02-26T03:33:31;79.20;;;37.92;;
32347;SDS011;18821;44.800;10.326;2023-02-26T03:36:10;94.25;;;47.83;;
32347;SDS011;18821;44.800;10.326;2023-02-26T03:44:26;158.45;;;65.65;;
32347;SDS011;18821;44.800;10.326;2023-02-26T03:47:02;162.95;;;67.88;;
32347;SDS011;18821;44.800;10.326;2023-02-26T03:49:35;182.73;;;71.47;;
32347;SDS011;18821;44.800;10.326;2023-02-26T03:52:15;187.63;;;73.28;;
32347;SDS011;18821;44.800;10.326;2023-02-26T03:54:57;202.38;;;83.53;;
32347;SDS011;18821;44.800;10.326;2023-02-26T03:57:48;179.32;;;68.30;;
32347;SDS011;18821;44.800;10.326;2023-02-26T04:00:27;81.47;;;30.15;;
32347;SDS011;18821;44.800;10.326;2023-02-26T04:06:09;26.95;;;10.77;;
32347;SDS011;18821;44.800;10.326;2023-02-26T04:08:37;19.65;;;5.80;;
32347;SDS011;18821;44.800;10.326;2023-02-26T04:11:04;20.10;;;4.85;;
32347;SDS011;18821;44.800;10.326;2023-02-26T04:13:31;17.40;;;3.42;;
32347;SDS011;18821;44.800;10.326;2023-02-26T04:15:57;15.77;;;4.18;;
32347;SDS011;18821;44.800;10.326;2023-02-26T04:18:24;20.95;;;5.00;;
32347;SDS011;18821;44.800;10.326;2023-02-26T04:20:50;15.73;;;3.65;;
32347;SDS011;18821;44.800;10.326;2023-02-26T04:23:15;16.95;;;3.35;;
32347;SDS011;18821;44.800;10.326;2023-02-26T04:25:44;28.02;;;4.88;;
32347;SDS011;18821;44.800;10.326;2023-02-26T04:28:12;12.32;;;2.92;;
32347;SDS011;18821;44.800;10.326;2023-02-26T04:30:38;19.80;;;4.45;;
32347;SDS011;18821;44.800;10.326;2023-02-26T04:33:06;14.38;;;3.83;;
32347;SDS011;18821;44.800;10.326;2023-02-26T04:35:32;18.27;;;3.75;;
32347;SDS011;18821;44.800;10.326;2023-02-26T04:37:58;20.67;;;4.07;;
32347;SDS011;18821;44.800;10.326;2023-02-26T04:40:25;7.47;;;1.52;;
32347;SDS011;18821;44.800;10.326;2023-02-26T04:42:51;14.10;;;3.35;;
32347;SDS011;18821;44.800;10.326;2023-02-26T04:45:22;18.38;;;2.53;;
32347;SDS011;18821;44.800;10.326;2023-02-26T04:47:48;7.55;;;1.52;;
32347;SDS011;18821;44.800;10.326;2023-02-26T04:50:15;8.00;;;2.10;;
32347;SDS011;18821;44.800;10.326;2023-02-26T04:52:42;16.50;;;2.60;;
32347;SDS011;18821;44.800;10.326;2023-02-26T04:55:09;18.33;;;4.82;;
32347;SDS011;18821;44.800;10.326;2023-02-26T04:57:37;9.20;;;2.00;;
32347;SDS011;18821;44.800;10.326;2023-02-26T05:00:03;7.88;;;1.90;;
32347;SDS011;18821;44.800;10.326;2023-02-26T05:02:35;15.90;;;2.28;;
32347;SDS011;18821;44.800;10.326;2023-02-26T05:05:01;16.30;;;2.47;;
32347;SDS011;18821;44.800;10.326;2023-02-26T05:07:27;10.25;;;2.38;;
32347;SDS011;18821;44.800;10.326;2023-02-26T05:09:53;5.63;;;0.85;;
32347;SDS011;18821;44.800;10.326;2023-02-26T05:12:19;13.32;;;1.27;;
32347;SDS011;18821;44.800;10.326;2023-02-26T05:14:45;18.30;;;1.92;;
32347;SDS011;18821;44.800;10.326;2023-02-26T05:17:11;3.83;;;0.85;;
32347;SDS011;18821;44.800;10.326;2023-02-26T05:19:37;16.10;;;1.88;;
32347;SDS011;18821;44.800;10.326;2023-02-26T05:22:03;18.23;;;2.22;;
32347;SDS011;18821;44.800;10.326;2023-02-26T05:24:29;15.23;;;2.63;;
32347;SDS011;18821;44.800;10.326;2023-02-26T05:26:55;9.88;;;1.65;;
32347;SDS011;18821;44.800;10.326;2023-02-26T05:29:21;8.05;;;0.98;;
32347;SDS011;18821;44.800;10.326;2023-02-26T05:31:48;16.65;;;1.77;;
32347;SDS011;18821;44.800;10.326;2023-02-26T05:34:15;11.65;;;1.80;;
32347;SDS011;18821;44.800;10.326;2023-02-26T05:36:40;11.90;;;1.75;;
32347;SDS011;18821;44.800;10.326;2023-02-26T05:39:07;14.88;;;2.25;;
32347;SDS011;18821;44.800;10.326;2023-02-26T05:41:34;16.77;;;2.25;;
32347;SDS011;18821;44.800;10.326;2023-02-26T05:44:00;16.98;;;2.03;;
32347;SDS011;18821;44.800;10.326;2023-02-26T05:46:26;7.32;;;1.75;;
32347;SDS011;18821;44.800;10.326;2023-02-26T05:48:52;6.55;;;0.95;;
32347;SDS011;18821;44.800;10.326;2023-02-26T05:51:18;9.43;;;1.27;;
32347;SDS011;18821;44.800;10.326;2023-02-26T05:53:44;9.48;;;1.40;;
32347;SDS011;18821;44.800;10.326;2023-02-26T05:56:10;10.43;;;1.80;;
32347;SDS011;18821;44.800;10.326;2023-02-26T05:58:38;8.02;;;1.38;;
32347;SDS011;18821;44.800;10.326;2023-02-26T06:01:03;13.07;;;1.73;;
32347;SDS011;18821;44.800;10.326;2023-02-26T06:03:29;18.80;;;2.40;;
32347;SDS011;18821;44.800;10.326;2023-02-26T06:05:55;11.35;;;2.05;;
32347;SDS011;18821;44.800;10.326;2023-02-26T06:08:21;11.40;;;1.23;;
32347;SDS011;18821;44.800;10.326;2023-02-26T06:10:48;8.05;;;1.33;;
32347;SDS011;18821;44.800;10.326;2023-02-26T06:13:16;8.30;;;1.30;;
32347;SDS011;18821;44.800;10.326;2023-02-26T06:15:42;7.53;;;0.93;;
32347;SDS011;18821;44.800;10.326;2023-02-26T06:18:08;8.10;;;1.52;;
32347;SDS011;18821;44.800;10.326;2023-02-26T06:20:34;4.53;;;0.80;;
32347;SDS011;18821;44.800;10.326;2023-02-26T06:23:00;8.27;;;1.30;;
32347;SDS011;18821;44.800;10.326;2023-02-26T06:25:26;9.35;;;0.77;;
32347;SDS011;18821;44.800;10.326;2023-02-26T06:27:51;3.78;;;0.65;;
32347;SDS011;18821;44.800;10.326;2023-02-26T06:30:17;6.63;;;0.95;;
32347;SDS011;18821;44.800;10.326;2023-02-26T06:32:43;8.43;;;1.02;;
32347;SDS011;18821;44.800;10.326;2023-02-26T06:35:10;5.28;;;0.90;;
32347;SDS011;18821;44.800;10.326;2023-02-26T06:37:35;8.82;;;0.93;;
32347;SDS011;18821;44.800;10.326;2023-02-26T06:40:02;4.53;;;0.80;;
32347;SDS011;18821;44.800;10.326;2023-02-26T06:42:28;16.83;;;1.48;;
32347;SDS011;18821;44.800;10.326;2023-02-26T06:44:54;5.47;;;0.80;;
32347;SDS011;18821;44.800;10.326;2023-02-26T06:47:21;5.50;;;0.80;;
32347;SDS011;18821;44.800;10.326;2023-02-26T06:49:48;4.85;;;1.00;;
32347;SDS011;18821;44.800;10.326;2023-02-26T06:52:14;7.68;;;1.02;;
32347;SDS011;18821;44.800;10.326;2023-02-26T06:54:39;5.10;;;0.88;;
32347;SDS011;18821;44.800;10.326;2023-02-26T06:57:05;4.32;;;0.50;;
32347;SDS011;18821;44.800;10.326;2023-02-26T06:59:31;8.65;;;1.25;;
32347;SDS011;18821;44.800;10.326;2023-02-26T07:01:57;4.25;;;0.85;;
32347;SDS011;18821;44.800;10.326;2023-02-26T07:04:23;3.78;;;0.80;;
32347;SDS011;18821;44.800;10.326;2023-02-26T07:06:49;3.75;;;0.95;;
32347;SDS011;18821;44.800;10.326;2023-02-26T07:09:15;5.13;;;0.80;;
32347;SDS011;18821;44.800;10.326;2023-02-26T07:11:41;10.18;;;2.10;;
32347;SDS011;18821;44.800;10.326;2023-02-26T07:14:08;8.30;;;1.15;;
32347;SDS011;18821;44.800;10.326;2023-02-26T07:16:34;7.10;;;1.45;;
32347;SDS011;18821;44.800;10.326;2023-02-26T07:19:00;4.25;;;0.73;;
32347;SDS011;18821;44.800;10.326;2023-02-26T07:21:26;4.30;;;0.93;;
32347;SDS011;18821;44.800;10.326;2023-02-26T07:23:52;6.07;;;0.80;;
32347;SDS011;18821;44.800;10.326;2023-02-26T07:26:18;6.13;;;0.73;;
32347;SDS011;18821;44.800;10.326;2023-02-26T07:28:44;3.55;;;0.70;;
32347;SDS011;18821;44.800;10.326;2023-02-26T07:31:10;6.47;;;0.63;;
32347;SDS011;18821;44.800;10.326;2023-02-26T07:33:36;3.15;;;0.82;;
32347;SDS011;18821;44.800;10.326;2023-02-26T07:36:04;6.78;;;1.63;;
32347;SDS011;18821;44.800;10.326;2023-02-26T07:38:30;10.68;;;2.47;;
32347;SDS011;18821;44.800;10.326;2023-02-26T07:40:56;4.18;;;0.73;;
32347;SDS011;18821;44.800;10.326;2023-02-26T07:43:23;7.55;;;1.10;;
32347;SDS011;18821;44.800;10.326;2023-02-26T07:45:49;3.25;;;0.80;;
32347;SDS011;18821;44.800;10.326;2023-02-26T07:48:16;5.38;;;0.90;;
32347;SDS011;18821;44.800;10.326;2023-02-26T07:50:42;4.82;;;0.73;;
32347;SDS011;18821;44.800;10.326;2023-02-26T07:53:09;2.08;;;0.85;;
32347;SDS011;18821;44.800;10.326;2023-02-26T07:55:35;1.60;;;0.70;;
32347;SDS011;18821;44.800;10.326;2023-02-26T07:58:00;2.63;;;0.65;;
32347;SDS011;18821;44.800;10.326;2023-02-26T08:00:26;2.00;;;0.80;;
32347;SDS011;18821;44.800;10.326;2023-02-26T08:02:52;2.58;;;0.82;;
32347;SDS011;18821;44.800;10.326;2023-02-26T08:05:18;2.88;;;0.65;;
32347;SDS011;18821;44.800;10.326;2023-02-26T08:07:44;7.50;;;0.95;;
32347;SDS011;18821;44.800;10.326;2023-02-26T08:10:10;4.53;;;0.57;;
32347;SDS011;18821;44.800;10.326;2023-02-26T08:12:36;4.43;;;0.65;;
32347;SDS011;18821;44.800;10.326;2023-02-26T08:15:03;6.13;;;0.68;;
32347;SDS011;18821;44.800;10.326;2023-02-26T08:17:29;2.53;;;0.40;;
32347;SDS011;18821;44.800;10.326;2023-02-26T08:19:55;3.47;;;0.60;;
32347;SDS011;18821;44.800;10.326;2023-02-26T08:22:21;4.10;;;0.73;;
32347;SDS011;18821;44.800;10.326;2023-02-26T08:24:48;7.32;;;1.50;;
32347;SDS011;18821;44.800;10.326;2023-02-26T08:27:15;4.38;;;0.40;;
32347;SDS011;18821;44.800;10.326;2023-02-26T08:29:41;3.70;;;0.80;;
32347;SDS011;18821;44.800;10.326;2023-02-26T08:32:07;0.50;;;0.43;;
32347;SDS011;18821;44.800;10.326;2023-02-26T08:34:33;3.45;;;0.32;;
32347;SDS011;18821;44.800;10.326;2023-02-26T08:36:59;2.17;;;0.50;;
32347;SDS011;18821;44.800;10.326;2023-02-26T08:39:25;5.57;;;0.95;;
32347;SDS011;18821;44.800;10.326;2023-02-26T08:41:51;0.82;;;0.30;;
32347;SDS011;18821;44.800;10.326;2023-02-26T08:44:17;0.73;;;0.50;;
32347;SDS011;18821;44.800;10.326;2023-02-26T08:46:43;2.58;;;0.50;;
32347;SDS011;18821;44.800;10.326;2023-02-26T08:49:09;1.05;;;0.43;;
32347;SDS011;18821;44.800;10.326;2023-02-26T08:51:35;2.60;;;0.60;;
32347;SDS011;18821;44.800;10.326;2023-02-26T08:54:01;3.13;;;0.50;;
32347;SDS011;18821;44.800;10.326;2023-02-26T08:56:27;2.58;;;0.55;;
32347;SDS011;18821;44.800;10.326;2023-02-26T08:58:53;2.10;;;0.73;;
32347;SDS011;18821;44.800;10.326;2023-02-26T09:01:19;2.47;;;1.15;;
32347;SDS011;18821;44.800;10.326;2023-02-26T09:03:45;3.00;;;0.75;;
32347;SDS011;18821;44.800;10.326;2023-02-26T09:06:11;1.08;;;0.40;;
32347;SDS011;18821;44.800;10.326;2023-02-26T09:08:37;0.73;;;0.45;;
32347;SDS011;18821;44.800;10.326;2023-02-26T09:11:03;1.58;;;0.50;;
32347;SDS011;18821;44.800;10.326;2023-02-26T09:13:30;1.90;;;0.70;;
32347;SDS011;18821;44.800;10.326;2023-02-26T09:15:56;1.85;;;0.40;;
32347;SDS011;18821;44.800;10.326;2023-02-26T09:18:22;4.38;;;0.80;;
32347;SDS011;18821;44.800;10.326;2023-02-26T09:20:48;2.30;;;0.60;;
32347;SDS011;18821;44.800;10.326;2023-02-26T09:23:14;0.73;;;0.38;;
32347;SDS011;18821;44.800;10.326;2023-02-26T09:25:40;0.43;;;0.20;;
32347;SDS011;18821;44.800;10.326;2023-02-26T09:28:06;1.20;;;0.30;;
32347;SDS011;18821;44.800;10.326;2023-02-26T09:30:32;1.20;;;0.52;;
32347;SDS011;18821;44.800;10.326;2023-02-26T09:32:58;1.88;;;0.50;;
32347;SDS011;18821;44.800;10.326;2023-02-26T09:35:24;1.33;;;0.60;;
32347;SDS011;18821;44.800;10.326;2023-02-26T09:37:50;1.00;;;0.40;;
32347;SDS011;18821;44.800;10.326;2023-02-26T09:40:22;1.35;;;0.60;;
32347;SDS011;18821;44.800;10.326;2023-02-26T09:45:42;1.17;;;0.30;;
32347;SDS011;18821;44.800;10.326;2023-02-26T09:48:11;1.10;;;0.30;;
32347;SDS011;18821;44.800;10.326;2023-02-26T09:50:45;1.05;;;0.50;;
32347;SDS011;18821;44.800;10.326;2023-02-26T09:53:18;0.38;;;0.38;;
32347;SDS011;18821;44.800;10.326;2023-02-26T09:56:16;0.30;;;0.30;;
32347;SDS011;18821;44.800;10.326;2023-02-26T09:58:46;0.90;;;0.47;;
32347;SDS011;18821;44.800;10.326;2023-02-26T10:12:15;0.30;;;0.30;;
32347;SDS011;18821;44.800;10.326;2023-02-26T10:15:01;5.40;;;0.45;;
32347;SDS011;18821;44.800;10.326;2023-02-26T10:17:40;4.28;;;0.50;;
32347;SDS011;18821;44.800;10.326;2023-02-26T10:20:38;6.75;;;1.25;;
32347;SDS011;18821;44.800;10.326;2023-02-26T10:25:52;0.55;;;0.32;;
32347;SDS011;18821;44.800;10.326;2023-02-26T10:30:59;4.47;;;0.60;;
32347;SDS011;18821;44.800;10.326;2023-02-26T10:36:34;3.40;;;0.40;;
32347;SDS011;18821;44.800;10.326;2023-02-26T10:41:54;1.92;;;0.60;;
32347;SDS011;18821;44.800;10.326;2023-02-26T10:47:17;1.65;;;0.43;;
32347;SDS011;18821;44.800;10.326;2023-02-26T10:50:02;0.88;;;0.77;;
32347;SDS011;18821;44.800;10.326;2023-02-26T10:52:30;2.85;;;0.80;;
32347;SDS011;18821;44.800;10.326;2023-02-26T11:00:39;2.67;;;0.43;;
32347;SDS011;18821;44.800;10.326;2023-02-26T11:03:21;1.60;;;0.68;;
32347;SDS011;18821;44.800;10.326;2023-02-26T11:06:04;0.85;;;0.65;;
32347;SDS011;18821;44.800;10.326;2023-02-26T11:08:39;2.97;;;0.50;;
32347;SDS011;18821;44.800;10.326;2023-02-26T11:11:07;2.10;;;0.60;;
32347;SDS011;18821;44.800;10.326;2023-02-26T11:13:36;2.30;;;0.63;;
32347;SDS011;18821;44.800;10.326;2023-02-26T11:16:24;3.88;;;0.40;;
32347;SDS011;18821;44.800;10.326;2023-02-26T11:18:52;1.10;;;0.60;;
32347;SDS011;18821;44.800;10.326;2023-02-26T11:21:24;2.03;;;0.65;;
32347;SDS011;18821;44.800;10.326;2023-02-26T11:24:33;3.83;;;0.70;;
32347;SDS011;18821;44.800;10.326;2023-02-26T11:26:52;2.85;;;0.70;;
32347;SDS011;18821;44.800;10.326;2023-02-26T11:29:20;6.85;;;0.85;;
32347;SDS011;18821;44.800;10.326;2023-02-26T11:31:52;1.73;;;0.63;;
32347;SDS011;18821;44.800;10.326;2023-02-26T11:34:23;1.38;;;0.43;;
32347;SDS011;18821;44.800;10.326;2023-02-26T11:36:50;2.42;;;0.75;;
32347;SDS011;18821;44.800;10.326;2023-02-26T11:39:21;2.28;;;0.75;;
32347;SDS011;18821;44.800;10.326;2023-02-26T11:41:50;2.90;;;0.43;;
32347;SDS011;18821;44.800;10.326;2023-02-26T11:44:21;4.68;;;0.45;;
32347;SDS011;18821;44.800;10.326;2023-02-26T11:47:21;2.03;;;0.75;;
32347;SDS011;18821;44.800;10.326;2023-02-26T11:49:52;2.58;;;0.70;;
32347;SDS011;18821;44.800;10.326;2023-02-26T11:54:48;3.45;;;0.98;;
32347;SDS011;18821;44.800;10.326;2023-02-26T11:57:19;4.32;;;0.90;;
32347;SDS011;18821;44.800;10.326;2023-02-26T11:59:50;1.23;;;0.70;;
32347;SDS011;18821;44.800;10.326;2023-02-26T12:02:18;2.20;;;0.82;;
32347;SDS011;18821;44.800;10.326;2023-02-26T12:04:51;12.32;;;4.78;;
32347;SDS011;18821;44.800;10.326;2023-02-26T12:07:20;3.95;;;0.70;;
32347;SDS011;18821;44.800;10.326;2023-02-26T12:09:46;2.25;;;0.68;;
32347;SDS011;18821;44.800;10.326;2023-02-26T12:15:20;3.00;;;0.93;;
32347;SDS011;18821;44.800;10.326;2023-02-26T12:26:23;2.65;;;0.73;;
32347;SDS011;18821;44.800;10.326;2023-02-26T12:40:13;3.55;;;0.70;;
32347;SDS011;18821;44.800;10.326;2023-02-26T12:43:03;2.80;;;1.35;;
32347;SDS011;18821;44.800;10.326;2023-02-26T13:10:39;6.82;;;1.20;;
32347;SDS011;18821;44.800;10.326;2023-02-26T13:16:06;4.55;;;1.23;;
32347;SDS011;18821;44.800;10.326;2023-02-26T13:21:36;2.85;;;1.58;;
32347;SDS011;18821;44.800;10.326;2023-02-26T13:24:12;4.75;;;1.33;;
32347;SDS011;18821;44.800;10.326;2023-02-26T13:26:42;4.15;;;1.00;;
32347;SDS011;18821;44.800;10.326;2023-02-26T13:29:11;4.53;;;1.95;;
32347;SDS011;18821;44.800;10.326;2023-02-26T13:31:52;4.15;;;0.80;;
32347;SDS011;18821;44.800;10.326;2023-02-26T13:37:03;6.38;;;1.33;;
32347;SDS011;18821;44.800;10.326;2023-02-26T13:39:37;3.47;;;1.30;;
32347;SDS011;18821;44.800;10.326;2023-02-26T13:50:48;5.57;;;1.15;;
32347;SDS011;18821;44.800;10.326;2023-02-26T13:55:50;4.85;;;1.20;;
32347;SDS011;18821;44.800;10.326;2023-02-26T14:00:56;3.03;;;0.80;;
32347;SDS011;18821;44.800;10.326;2023-02-26T14:03:36;5.53;;;1.40;;
32347;SDS011;18821;44.800;10.326;2023-02-26T14:06:37;3.75;;;1.02;;
32347;SDS011;18821;44.800;10.326;2023-02-26T14:19:40;4.25;;;1.30;;
32347;SDS011;18821;44.800;10.326;2023-02-26T14:28:17;4.53;;;1.05;;
32347;SDS011;18821;44.800;10.326;2023-02-26T14:30:51;2.63;;;0.70;;
32347;SDS011;18821;44.800;10.326;2023-02-26T14:33:31;5.07;;;0.90;;
32347;SDS011;18821;44.800;10.326;2023-02-26T14:37:11;1.38;;;0.63;;
32347;SDS011;18821;44.800;10.326;2023-02-26T14:39:22;5.00;;;1.10;;
32347;SDS011;18821;44.800;10.326;2023-02-26T14:42:04;4.72;;;0.90;;
32347;SDS011;18821;44.800;10.326;2023-02-26T14:44:53;3.22;;;1.30;;
32347;SDS011;18821;44.800;10.326;2023-02-26T14:47:46;2.60;;;1.02;;
32347;SDS011;18821;44.800;10.326;2023-02-26T14:50:14;8.27;;;1.10;;
32347;SDS011;18821;44.800;10.326;2023-02-26T14:58:45;4.95;;;0.95;;
32347;SDS011;18821;44.800;10.326;2023-02-26T15:03:59;6.18;;;2.13;;
32347;SDS011;18821;44.800;10.326;2023-02-26T15:23:45;3.38;;;0.98;;
32347;SDS011;18821;44.800;10.326;2023-02-26T15:26:03;3.47;;;0.60;;
32347;SDS011;18821;44.800;10.326;2023-02-26T15:28:31;3.00;;;0.82;;
32347;SDS011;18821;44.800;10.326;2023-02-26T15:31:03;4.28;;;0.90;;
32347;SDS011;18821;44.800;10.326;2023-02-26T15:33:32;5.47;;;0.95;;
32347;SDS011;18821;44.800;10.326;2023-02-26T15:35:59;3.72;;;0.98;;
32347;SDS011;18821;44.800;10.326;2023-02-26T15:38:29;3.25;;;0.90;;
32347;SDS011;18821;44.800;10.326;2023-02-26T15:41:09;6.13;;;0.90;;
32347;SDS011;18821;44.800;10.326;2023-02-26T15:43:36;3.78;;;0.60;;
32347;SDS011;18821;44.800;10.326;2023-02-26T15:46:07;3.97;;;0.80;;
32347;SDS011;18821;44.800;10.326;2023-02-26T15:48:35;2.53;;;0.60;;
32347;SDS011;18821;44.800;10.326;2023-02-26T15:51:04;2.97;;;1.20;;
32347;SDS011;18821;44.800;10.326;2023-02-26T15:53:36;2.90;;;0.85;;
32347;SDS011;18821;44.800;10.326;2023-02-26T15:56:07;2.38;;;0.82;;
32347;SDS011;18821;44.800;10.326;2023-02-26T15:58:45;1.85;;;1.02;;
32347;SDS011;18821;44.800;10.326;2023-02-26T16:01:18;2.33;;;1.00;;
32347;SDS011;18821;44.800;10.326;2023-02-26T16:03:48;8.30;;;0.80;;
32347;SDS011;18821;44.800;10.326;2023-02-26T16:06:16;2.88;;;0.98;;
32347;SDS011;18821;44.800;10.326;2023-02-26T16:08:43;6.15;;;0.80;;
32347;SDS011;18821;44.800;10.326;2023-02-26T16:11:10;0.95;;;0.70;;
32347;SDS011;18821;44.800;10.326;2023-02-26T16:13:38;3.88;;;0.55;;
32347;SDS011;18821;44.800;10.326;2023-02-26T16:16:08;0.73;;;0.30;;
32347;SDS011;18821;44.800;10.326;2023-02-26T16:18:54;0.50;;;0.40;;
32347;SDS011;18821;44.800;10.326;2023-02-26T16:23:56;3.50;;;0.70;;
32347;SDS011;18821;44.800;10.326;2023-02-26T16:26:25;0.30;;;0.30;;
32347;SDS011;18821;44.800;10.326;2023-02-26T16:29:03;3.58;;;0.50;;
32347;SDS011;18821;44.800;10.326;2023-02-26T16:31:35;0.90;;;0.73;;
32347;SDS011;18821;44.800;10.326;2023-02-26T16:34:03;0.60;;;0.50;;
32347;SDS011;18821;44.800;10.326;2023-02-26T16:36:37;1.33;;;0.50;;
32347;SDS011;18821;44.800;10.326;2023-02-26T16:41:34;0.47;;;0.30;;
32347;SDS011;18821;44.800;10.326;2023-02-26T16:44:04;2.72;;;0.75;;
32347;SDS011;18821;44.800;10.326;2023-02-26T16:47:04;0.95;;;0.70;;
32347;SDS011;18821;44.800;10.326;2023-02-26T16:49:31;1.55;;;0.60;;
32347;SDS011;18821;44.800;10.326;2023-02-26T16:51:58;3.35;;;0.70;;
32347;SDS011;18821;44.800;10.326;2023-02-26T16:54:27;1.92;;;0.88;;
32347;SDS011;18821;44.800;10.326;2023-02-26T16:59:39;1.27;;;0.55;;
32347;SDS011;18821;44.800;10.326;2023-02-26T17:02:11;0.80;;;0.40;;
32347;SDS011;18821;44.800;10.326;2023-02-26T17:04:44;2.10;;;0.50;;
32347;SDS011;18821;44.800;10.326;2023-02-26T17:07:16;3.20;;;0.57;;
32347;SDS011;18821;44.800;10.326;2023-02-26T17:09:58;3.50;;;0.70;;
32347;SDS011;18821;44.800;10.326;2023-02-26T17:12:42;2.85;;;0.85;;
32347;SDS011;18821;44.800;10.326;2023-02-26T17:15:15;2.25;;;0.80;;
32347;SDS011;18821;44.800;10.326;2023-02-26T17:17:45;1.95;;;0.98;;
32347;SDS011;18821;44.800;10.326;2023-02-26T17:20:14;1.98;;;1.13;;
32347;SDS011;18821;44.800;10.326;2023-02-26T17:22:41;2.55;;;1.05;;
32347;SDS011;18821;44.800;10.326;2023-02-26T17:25:12;5.70;;;1.05;;
32347;SDS011;18821;44.800;10.326;2023-02-26T17:27:40;3.70;;;1.10;;
32347;SDS011;18821;44.800;10.326;2023-02-26T17:30:06;2.70;;;0.80;;
32347;SDS011;18821;44.800;10.326;2023-02-26T17:32:34;1.63;;;0.80;;
32347;SDS011;18821;44.800;10.326;2023-02-26T17:35:00;0.73;;;0.60;;
32347;SDS011;18821;44.800;10.326;2023-02-26T17:37:31;2.88;;;1.10;;
32347;SDS011;18821;44.800;10.326;2023-02-26T17:39:58;3.30;;;1.25;;
32347;SDS011;18821;44.800;10.326;2023-02-26T17:42:24;4.72;;;0.90;;
32347;SDS011;18821;44.800;10.326;2023-02-26T17:44:51;6.15;;;1.33;;
32347;SDS011;18821;44.800;10.326;2023-02-26T17:47:20;2.17;;;1.30;;
32347;SDS011;18821;44.800;10.326;2023-02-26T17:49:47;1.95;;;1.00;;
32347;SDS011;18821;44.800;10.326;2023-02-26T17:52:14;6.63;;;1.15;;
32347;SDS011;18821;44.800;10.326;2023-02-26T17:54:40;8.07;;;1.45;;
32347;SDS011;18821;44.800;10.326;2023-02-26T17:57:08;2.28;;;1.08;;
32347;SDS011;18821;44.800;10.326;2023-02-26T17:59:44;2.88;;;0.90;;
32347;SDS011;18821;44.800;10.326;2023-02-26T18:02:17;2.70;;;0.85;;
32347;SDS011;18821;44.800;10.326;2023-02-26T18:04:47;2.75;;;1.27;;
32347;SDS011;18821;44.800;10.326;2023-02-26T18:07:14;7.88;;;1.00;;
32347;SDS011;18821;44.800;10.326;2023-02-26T18:09:45;2.00;;;0.93;;
32347;SDS011;18821;44.800;10.326;2023-02-26T18:12:16;3.17;;;1.27;;
32347;SDS011;18821;44.800;10.326;2023-02-26T18:14:44;3.33;;;1.42;;